createdAt,value
2022-09-04T00:01:45.306Z,61.93
2022-09-04T00:04:22.320Z,61.85
2022-09-04T00:06:58.905Z,62.15
2022-09-04T00:09:28.684Z,62.13
2022-09-04T00:11:59.162Z,61.55
2022-09-04T00:14:33.729Z,61.75
2022-09-04T00:17:04.145Z,61.59
2022-09-04T00:19:43.485Z,62.28
2022-09-04T00:22:22.493Z,62.04
2022-09-04T00:25:10.520Z,62.11
2022-09-04T00:27:44.864Z,62.48
2022-09-04T00:30:12.458Z,62.67
2022-09-04T00:32:52.255Z,61.74
2022-09-04T00:35:24.871Z,61.90
2022-09-04T00:38:01.293Z,62.37
2022-09-04T00:40:39.772Z,62.75
2022-09-04T00:43:26.293Z,61.82
2022-09-04T00:46:18.204Z,62.01
2022-09-04T00:48:54.716Z,62.34
2022-09-04T00:51:40.938Z,62.67
2022-09-04T00:54:14.390Z,62.91
2022-09-04T00:56:54.305Z,63.47
2022-09-04T00:59:25.192Z,63.31
2022-09-04T01:01:56.028Z,63.62
2022-09-04T01:04:29.533Z,63.67
2022-09-04T01:07:24.163Z,63.04
2022-09-04T01:09:57.930Z,62.99
2022-09-04T01:12:39.020Z,63.12
2022-09-04T01:15:14.628Z,62.42
2022-09-04T01:17:49.231Z,62.47
2022-09-04T01:20:28.851Z,62.19
2022-09-04T01:22:59.379Z,63.13
2022-09-04T01:25:32.715Z,62.40
2022-09-04T01:28:19.295Z,63.30
2022-09-04T01:30:49.544Z,63.29
2022-09-04T01:33:23.611Z,63.58
2022-09-04T01:35:56.793Z,63.44
2022-09-04T01:38:41.596Z,62.66
2022-09-04T01:41:14.624Z,63.02
2022-09-04T01:43:43.095Z,62.89
2022-09-04T01:46:29.501Z,62.50
2022-09-04T01:49:16.478Z,62.64
2022-09-04T01:51:52.859Z,62.52
2022-09-04T01:54:44.170Z,62.60
2022-09-04T01:57:16.450Z,61.97
2022-09-04T01:59:44.131Z,62.32
2022-09-04T02:02:25.754Z,62.39
2022-09-04T02:05:06.283Z,62.99
2022-09-04T02:07:40.817Z,63.43
2022-09-04T02:10:08.487Z,62.59
2022-09-04T02:12:42.677Z,61.66
2022-09-04T02:15:10.233Z,61.20
2022-09-04T02:18:07.224Z,62.13
2022-09-04T02:20:34.744Z,61.09
2022-09-04T02:23:13.706Z,61.30
2022-09-04T02:25:42.454Z,61.24
2022-09-04T02:28:16.001Z,60.61
2022-09-04T02:31:03.814Z,60.90
2022-09-04T02:33:40.485Z,60.82
2022-09-04T02:36:10.996Z,61.88
2022-09-04T02:38:41.289Z,60.91
2022-09-04T02:41:16.145Z,60.77
2022-09-04T02:43:46.524Z,60.77
2022-09-04T02:46:32.904Z,60.61
2022-09-04T02:49:19.587Z,60.31
2022-09-04T02:51:53.467Z,60.32
2022-09-04T02:54:40.097Z,60.25
2022-09-04T02:57:20.385Z,59.87
2022-09-04T02:59:47.704Z,60.23
2022-09-04T03:02:23.508Z,62.19
2022-09-04T03:04:57.310Z,61.93
2022-09-04T03:07:26.552Z,61.23
2022-09-04T03:10:06.109Z,60.46
2022-09-04T03:12:33.595Z,60.30
2022-09-04T03:15:07.403Z,60.51
2022-09-04T03:17:38.400Z,60.62
2022-09-04T03:20:16.642Z,60.22
2022-09-04T03:22:55.006Z,60.77
2022-09-04T03:25:25.427Z,61.11
2022-09-04T03:27:53.094Z,60.64
2022-09-04T03:30:20.413Z,62.05
2022-09-04T03:32:47.630Z,62.02
2022-09-04T03:35:21.659Z,61.23
2022-09-04T03:38:00.120Z,61.05
2022-09-04T03:40:42.979Z,60.82
2022-09-04T03:43:16.386Z,60.93
2022-09-04T03:45:47.087Z,60.64
2022-09-04T03:48:17.733Z,60.25
2022-09-04T03:50:45.298Z,60.52
2022-09-04T03:53:19.256Z,60.57
2022-09-04T03:55:46.754Z,60.28
2022-09-04T03:58:38.276Z,60.38
2022-09-04T04:01:05.888Z,60.90
2022-09-04T04:03:34.200Z,60.65
2022-09-04T04:06:05.499Z,60.73
2022-09-04T04:08:42.635Z,60.86
2022-09-04T04:11:10.184Z,60.87
2022-09-04T04:13:55.993Z,61.06
2022-09-04T04:16:28.675Z,61.06
2022-09-04T04:19:07.059Z,60.94
2022-09-04T04:21:55.609Z,60.83
2022-09-04T04:24:33.032Z,60.53
2022-09-04T04:27:07.703Z,60.76
2022-09-04T04:29:42.826Z,61.57
2022-09-04T04:32:24.339Z,60.29
2022-09-04T04:34:53.127Z,60.67
2022-09-04T04:37:31.685Z,60.67
2022-09-04T04:40:03.119Z,61.42
2022-09-04T04:42:36.222Z,61.53
2022-09-04T04:45:34.587Z,61.35
2022-09-04T04:48:11.185Z,62.12
2022-09-04T04:50:46.173Z,62.33
2022-09-04T04:53:20.075Z,61.51
2022-09-04T04:55:53.846Z,61.52
2022-09-04T04:58:25.119Z,61.19
2022-09-04T05:01:11.915Z,60.00
2022-09-04T05:03:52.279Z,61.00
2022-09-04T05:06:21.580Z,60.83
2022-09-04T05:09:03.459Z,60.33
2022-09-04T05:11:45.981Z,60.50
2022-09-04T05:14:16.596Z,60.62
2022-09-04T05:16:52.246Z,61.48
2022-09-04T05:19:25.459Z,61.17
2022-09-04T05:21:59.233Z,60.75
2022-09-04T05:24:26.753Z,60.70
2022-09-04T05:27:01.093Z,61.28
2022-09-04T05:29:32.867Z,61.00
2022-09-04T05:32:23.570Z,61.71
2022-09-04T05:34:51.790Z,60.87
2022-09-04T05:37:22.015Z,62.14
2022-09-04T05:40:04.488Z,60.82
2022-09-04T05:42:50.854Z,61.24
2022-09-04T05:45:44.591Z,61.58
2022-09-04T05:48:30.766Z,61.32
2022-09-04T05:51:05.043Z,60.55
2022-09-04T05:53:37.799Z,61.30
2022-09-04T05:56:21.431Z,61.18
2022-09-04T05:59:04.075Z,61.23
2022-09-04T06:01:52.386Z,61.28
2022-09-04T06:04:41.897Z,61.95
2022-09-04T06:07:13.387Z,62.31
2022-09-04T06:09:44.168Z,62.90
2022-09-04T06:12:34.572Z,62.90
2022-09-04T06:15:04.659Z,62.33
2022-09-04T06:17:47.566Z,61.83
2022-09-04T06:20:15.226Z,62.59
2022-09-04T06:22:50.167Z,62.10
2022-09-04T06:25:20.463Z,61.58
2022-09-04T06:28:09.636Z,61.76
2022-09-04T06:30:38.592Z,61.28
2022-09-04T06:33:12.699Z,60.16
2022-09-04T06:35:59.411Z,60.84
2022-09-04T06:38:32.895Z,60.74
2022-09-04T06:41:19.292Z,60.43
2022-09-04T06:43:54.355Z,60.64
2022-09-04T06:46:28.299Z,59.73
2022-09-04T06:49:01.886Z,59.31
2022-09-04T06:51:32.471Z,60.27
2022-09-04T06:54:19.514Z,59.66
2022-09-04T06:56:56.499Z,60.11
2022-09-04T06:59:26.828Z,60.60
2022-09-04T07:02:07.642Z,60.30
2022-09-04T07:04:47.427Z,59.22
2022-09-04T07:07:27.371Z,59.12
2022-09-04T07:10:01.511Z,58.60
2022-09-04T07:12:38.569Z,58.02
2022-09-04T07:15:12.444Z,58.67
2022-09-04T07:17:42.116Z,58.46
2022-09-04T07:20:15.487Z,60.32
2022-09-04T07:22:48.082Z,60.92
2022-09-04T07:25:23.613Z,58.75
2022-09-04T07:28:09.971Z,59.97
2022-09-04T07:30:40.201Z,59.46
2022-09-04T07:33:11.545Z,56.69
2022-09-04T07:35:45.043Z,57.37
2022-09-04T07:38:21.955Z,57.07
2022-09-04T07:40:59.324Z,56.80
2022-09-04T07:43:36.602Z,57.05
2022-09-04T07:46:10.594Z,59.01
2022-09-04T07:48:44.503Z,58.28
2022-09-04T07:51:13.768Z,57.75
2022-09-04T07:53:41.333Z,57.49
2022-09-04T07:56:20.942Z,57.59
2022-09-04T07:58:50.273Z,57.17
2022-09-04T08:01:40.341Z,57.94
2022-09-04T08:04:22.050Z,58.18
2022-09-04T08:06:50.616Z,56.66
2022-09-04T08:09:27.422Z,57.35
2022-09-04T08:12:04.943Z,57.26
2022-09-04T08:14:51.434Z,56.23
2022-09-04T08:17:43.154Z,55.41
2022-09-04T08:20:34.906Z,55.23
2022-09-04T08:23:04.193Z,55.53
2022-09-04T08:25:43.450Z,55.40
2022-09-04T08:28:34.063Z,54.98
2022-09-04T08:31:09.270Z,54.87
2022-09-04T08:33:55.539Z,54.20
2022-09-04T08:36:36.590Z,54.62
2022-09-04T08:39:07.499Z,54.89
2022-09-04T08:41:54.544Z,54.72
2022-09-04T08:44:27.082Z,53.91
2022-09-04T08:47:01.908Z,54.32
2022-09-04T08:49:35.506Z,56.55
2022-09-04T08:52:21.974Z,54.94
2022-09-04T08:55:00.724Z,53.58
2022-09-04T08:57:40.543Z,55.30
2022-09-04T09:00:13.800Z,53.13
2022-09-04T09:02:53.715Z,54.12
2022-09-04T09:05:39.315Z,54.12
2022-09-04T09:08:22.224Z,53.60
2022-09-04T09:11:08.423Z,54.92
2022-09-04T09:13:57.711Z,56.36
2022-09-04T09:16:44.624Z,54.33
2022-09-04T09:19:37.603Z,55.01
2022-09-04T09:22:09.019Z,53.91
2022-09-04T09:24:52.024Z,54.41
2022-09-04T09:27:38.866Z,53.87
2022-09-04T09:30:12.617Z,53.72
2022-09-04T09:32:58.769Z,53.85
2022-09-04T09:35:42.011Z,53.25
2022-09-04T09:38:09.417Z,53.52
2022-09-04T09:40:58.848Z,53.56
2022-09-04T09:44:02.258Z,52.15
2022-09-04T09:46:38.580Z,52.00
2022-09-04T09:49:15.052Z,52.52
2022-09-04T09:52:01.819Z,52.54
2022-09-04T09:54:50.789Z,52.42
2022-09-04T09:57:18.365Z,52.44
2022-09-04T10:00:02.432Z,53.46
2022-09-04T10:03:04.926Z,51.78
2022-09-04T10:05:51.623Z,51.34
2022-09-04T10:08:35.977Z,51.81
2022-09-04T10:11:30.744Z,51.35
2022-09-04T10:13:57.981Z,51.67
2022-09-04T10:16:25.721Z,54.04
2022-09-04T10:18:57.276Z,52.64
2022-09-04T10:21:24.736Z,52.99
2022-09-04T10:24:11.209Z,52.84
2022-09-04T10:26:48.899Z,51.39
2022-09-04T10:29:23.949Z,52.08
2022-09-04T10:31:54.192Z,51.48
2022-09-04T10:34:38.435Z,50.78
2022-09-04T10:37:05.650Z,52.71
2022-09-04T10:39:52.142Z,54.92
2022-09-04T10:42:23.622Z,52.66
2022-09-04T10:44:57.415Z,55.86
2022-09-04T10:47:30.660Z,57.59
2022-09-04T10:50:15.971Z,57.80
2022-09-04T10:52:51.087Z,57.28
2022-09-04T10:55:29.167Z,57.51
2022-09-04T10:57:59.980Z,59.06
2022-09-04T11:00:31.876Z,58.21
2022-09-04T11:03:03.489Z,59.25
2022-09-04T11:05:44.531Z,62.22
2022-09-04T11:08:27.092Z,62.19
2022-09-04T11:11:07.015Z,60.85
2022-09-04T11:13:51.744Z,58.96
2022-09-04T11:16:34.824Z,58.42
2022-09-04T11:19:21.246Z,60.36
2022-09-04T11:22:08.753Z,56.85
2022-09-04T11:24:42.239Z,55.92
2022-09-04T11:27:20.389Z,56.09
2022-09-04T11:29:59.369Z,53.17
2022-09-04T11:32:48.686Z,50.09
2022-09-04T11:35:35.017Z,51.18
2022-09-04T11:38:08.329Z,51.02
2022-09-04T11:40:35.642Z,49.97
2022-09-04T11:43:09.457Z,50.94
2022-09-04T11:45:41.506Z,51.72
2022-09-04T11:48:12.196Z,50.96
2022-09-04T11:50:42.735Z,50.69
2022-09-04T11:53:19.669Z,51.85
2022-09-04T11:55:52.837Z,51.51
2022-09-04T11:58:31.042Z,51.49
2022-09-04T12:01:15.194Z,49.55
2022-09-04T12:03:51.397Z,51.00
2022-09-04T12:06:39.003Z,53.28
2022-09-04T12:09:22.513Z,50.60
2022-09-04T12:12:11.084Z,48.34
2022-09-04T12:14:47.473Z,49.05
2022-09-04T12:17:15.658Z,48.21
2022-09-04T12:20:06.151Z,47.22
2022-09-04T12:23:02.800Z,46.02
2022-09-04T12:25:45.137Z,46.01
2022-09-04T12:28:21.705Z,44.72
2022-09-04T12:31:15.925Z,45.76
2022-09-04T12:33:47.475Z,45.31
2022-09-04T12:36:24.194Z,45.96
2022-09-04T12:39:07.336Z,46.08
2022-09-04T12:41:54.570Z,45.91
2022-09-04T12:44:40.152Z,43.40
2022-09-04T12:47:07.701Z,44.14
2022-09-04T12:49:41.483Z,44.88
2022-09-04T12:52:19.324Z,43.87
2022-09-04T12:54:50.734Z,43.91
2022-09-04T12:57:26.653Z,42.44
2022-09-04T12:59:54.619Z,43.09
2022-09-04T13:02:30.144Z,43.78
2022-09-04T13:05:17.970Z,43.64
2022-09-04T13:08:14.936Z,42.80
2022-09-04T13:10:43.840Z,44.16
2022-09-04T13:13:15.670Z,43.64
2022-09-04T13:15:55.349Z,43.72
2022-09-04T13:18:43.349Z,44.82
2022-09-04T13:21:20.166Z,42.65
2022-09-04T13:23:50.767Z,41.55
2022-09-04T13:26:20.957Z,42.88
2022-09-04T13:28:54.386Z,41.31
2022-09-04T13:31:21.768Z,41.62
2022-09-04T13:33:53.845Z,41.64
2022-09-04T13:36:26.652Z,41.48
2022-09-04T13:38:55.316Z,44.00
2022-09-04T13:41:42.194Z,41.98
2022-09-04T13:44:12.971Z,40.88
2022-09-04T13:46:48.646Z,39.72
2022-09-04T13:49:18.200Z,41.43
2022-09-04T13:51:46.458Z,43.86
2022-09-04T13:54:13.850Z,41.07
2022-09-04T13:56:56.902Z,37.49
2022-09-04T13:59:24.202Z,37.50
2022-09-04T14:01:52.602Z,37.79
2022-09-04T14:04:26.529Z,38.34
2022-09-04T14:06:59.741Z,40.34
2022-09-04T14:09:27.343Z,41.08
2022-09-04T14:12:31.634Z,38.30
2022-09-04T14:15:09.863Z,38.24
2022-09-04T14:17:49.662Z,38.51
2022-09-04T14:20:24.256Z,39.77
2022-09-04T14:23:03.337Z,39.03
2022-09-04T14:25:43.891Z,39.41
2022-09-04T14:28:20.822Z,40.61
2022-09-04T14:30:54.273Z,40.27
2022-09-04T14:33:35.837Z,40.56
2022-09-04T14:36:12.723Z,39.55
2022-09-04T14:38:58.988Z,40.52
2022-09-04T14:41:36.489Z,39.87
2022-09-04T14:44:07.591Z,40.81
2022-09-04T14:46:38.446Z,41.07
2022-09-04T14:49:07.446Z,39.30
2022-09-04T14:51:43.614Z,39.97
2022-09-04T14:54:15.732Z,40.52
2022-09-04T14:56:43.472Z,39.44
2022-09-04T14:59:12.297Z,40.10
2022-09-04T15:01:54.936Z,40.65
2022-09-04T15:04:26.728Z,40.97
2022-09-04T15:07:11.351Z,41.68
2022-09-04T15:09:41.464Z,41.93
2022-09-04T15:12:24.661Z,41.63
2022-09-04T15:15:03.985Z,40.88
2022-09-04T15:17:31.407Z,43.49
2022-09-04T15:20:03.934Z,39.96
2022-09-04T15:22:47.698Z,40.90
2022-09-04T15:25:18.655Z,40.97
2022-09-04T15:27:47.943Z,42.18
2022-09-04T15:30:19.849Z,41.47
2022-09-04T15:32:47.183Z,42.51
2022-09-04T15:35:23.036Z,42.09
2022-09-04T15:37:51.909Z,41.29
2022-09-04T15:40:28.463Z,40.39
2022-09-04T15:43:08.502Z,40.36
2022-09-04T15:45:43.144Z,40.81
2022-09-04T15:48:29.622Z,40.70
2022-09-04T15:51:15.692Z,40.34
2022-09-04T15:53:46.021Z,40.50
2022-09-04T15:56:16.298Z,40.98
2022-09-04T15:58:59.089Z,41.09
2022-09-04T16:01:27.344Z,41.59
2022-09-04T16:04:01.243Z,41.55
2022-09-04T16:06:37.990Z,41.91
2022-09-04T16:09:07.912Z,41.97
2022-09-04T16:11:41.609Z,41.84
2022-09-04T16:14:11.961Z,42.33
2022-09-04T16:16:44.773Z,42.40
2022-09-04T16:19:20.798Z,43.00
2022-09-04T16:21:58.303Z,43.23
2022-09-04T16:24:32.361Z,42.28
2022-09-04T16:26:59.743Z,42.49
2022-09-04T16:29:28.855Z,43.09
2022-09-04T16:31:56.654Z,42.26
2022-09-04T16:34:28.405Z,42.99
2022-09-04T16:37:20.190Z,42.75
2022-09-04T16:40:06.375Z,43.01
2022-09-04T16:42:40.011Z,43.92
2022-09-04T16:45:12.266Z,44.78
2022-09-04T16:47:47.680Z,44.13
2022-09-04T16:50:35.736Z,43.84
2022-09-04T16:53:29.867Z,43.48
2022-09-04T16:56:16.427Z,43.96
2022-09-04T16:58:54.715Z,43.37
2022-09-04T17:01:26.141Z,44.28
2022-09-04T17:04:14.260Z,43.62
2022-09-04T17:06:57.477Z,44.00
2022-09-04T17:09:32.159Z,44.20
2022-09-04T17:12:02.008Z,44.13
2022-09-04T17:14:35.912Z,43.99
2022-09-04T17:17:09.280Z,44.57
2022-09-04T17:20:12.066Z,46.05
2022-09-04T17:29:03.639Z,46.16
2022-09-04T17:29:16.209Z,47.17
2022-09-04T17:29:18.805Z,46.35
2022-09-04T17:31:25.923Z,47.33
2022-09-04T17:40:33.446Z,47.38
2022-09-04T17:40:48.981Z,48.00
2022-09-04T17:40:49.126Z,47.94
2022-09-04T17:43:22.826Z,48.99
2022-09-04T17:45:44.528Z,49.10
2022-09-04T17:48:32.846Z,48.50
2022-09-04T17:51:01.182Z,48.72
2022-09-04T17:53:34.416Z,49.60
2022-09-04T17:56:07.020Z,51.63
2022-09-04T17:58:35.952Z,50.86
2022-09-04T18:01:14.320Z,51.55
2022-09-04T18:04:20.620Z,51.50
2022-09-04T18:06:54.998Z,51.44
2022-09-04T18:09:41.524Z,51.42
2022-09-04T18:12:21.490Z,51.98
2022-09-04T18:15:12.861Z,52.39
2022-09-04T18:17:48.295Z,52.51
2022-09-04T18:20:24.250Z,52.15
2022-09-04T18:22:55.195Z,52.29
2022-09-04T18:25:24.566Z,52.63
2022-09-04T18:28:12.188Z,52.75
2022-09-04T18:37:12.402Z,52.51
2022-09-04T18:37:25.654Z,53.46
2022-09-04T18:37:26.027Z,53.58
2022-09-04T18:40:21.177Z,54.77
2022-09-04T18:50:36.653Z,54.90
2022-09-04T18:50:37.436Z,54.48
2022-09-04T18:50:40.226Z,54.29
2022-09-04T18:51:58.212Z,54.59
2022-09-04T18:54:30.051Z,54.81
2022-09-04T18:57:06.410Z,55.32
2022-09-04T18:59:36.384Z,55.49
2022-09-04T19:02:10.664Z,55.39
2022-09-04T19:04:41.651Z,55.80
2022-09-04T19:07:17.166Z,55.46
2022-09-04T19:10:03.665Z,55.86
2022-09-04T19:12:49.503Z,55.79
2022-09-04T19:15:36.811Z,55.71
2022-09-04T19:18:08.595Z,55.70
2022-09-04T19:20:46.977Z,55.29
2022-09-04T19:23:26.290Z,55.69
2022-09-04T19:25:56.752Z,55.45
2022-09-04T19:28:47.029Z,55.51
2022-09-04T19:31:35.003Z,55.45
2022-09-04T19:34:04.498Z,56.00
2022-09-04T19:36:47.281Z,55.59
2022-09-04T19:45:54.408Z,56.36
2022-09-04T19:46:07.452Z,56.61
2022-09-04T19:46:18.486Z,56.55
2022-09-04T19:48:00.141Z,56.33
2022-09-04T19:53:22.583Z,56.04
2022-09-04T19:53:41.055Z,55.93
2022-09-04T19:56:11.730Z,56.09
2022-09-04T19:58:42.606Z,56.37
2022-09-04T20:01:20.343Z,56.97
2022-09-04T20:03:49.218Z,56.79
2022-09-04T20:06:21.689Z,56.64
2022-09-04T20:08:51.815Z,56.73
2022-09-04T20:11:34.613Z,56.66
2022-09-04T20:14:23.188Z,57.14
2022-09-04T20:17:08.042Z,57.40
2022-09-04T20:19:46.190Z,57.30
2022-09-04T20:22:14.770Z,56.96
2022-09-04T20:25:01.232Z,57.82
2022-09-04T20:27:35.191Z,57.51
2022-09-04T20:30:24.732Z,57.76
2022-09-04T20:32:56.017Z,58.10
2022-09-04T20:35:33.276Z,57.35
2022-09-04T20:38:30.447Z,57.84
2022-09-04T20:41:02.530Z,57.67
2022-09-04T20:43:36.922Z,57.51
2022-09-04T20:52:25.293Z,57.56
2022-09-04T20:52:57.195Z,57.41
2022-09-04T20:52:58.050Z,57.35
2022-09-04T20:54:41.458Z,57.17
2022-09-04T21:03:06.582Z,57.31
2022-09-04T21:03:21.624Z,56.85
2022-09-04T21:03:31.014Z,56.99
2022-09-04T21:06:07.276Z,57.33
2022-09-04T21:08:38.422Z,57.09
2022-09-04T21:11:12.627Z,57.21
2022-09-04T21:13:56.428Z,57.34
2022-09-04T21:16:35.569Z,57.17
2022-09-04T21:19:27.927Z,57.50
2022-09-04T21:22:05.238Z,57.63
2022-09-04T21:25:03.287Z,57.60
2022-09-04T21:27:37.248Z,57.29
2022-09-04T21:30:06.564Z,57.46
2022-09-04T21:32:40.046Z,57.44
2022-09-04T21:35:13.293Z,57.31
2022-09-04T21:37:59.395Z,57.49
2022-09-04T21:40:51.483Z,57.65
2022-09-04T21:43:35.978Z,58.07
2022-09-04T21:46:13.038Z,58.76
2022-09-04T21:48:43.374Z,58.41
2022-09-04T21:51:32.516Z,58.26
2022-09-04T21:54:38.266Z,58.29
2022-09-04T22:02:30.748Z,58.26
2022-09-04T22:02:40.142Z,59.82
2022-09-04T22:03:20.123Z,58.93
2022-09-04T22:06:34.936Z,58.94
2022-09-04T22:13:26.663Z,58.71
2022-09-04T22:13:40.089Z,59.06
2022-09-04T22:14:54.553Z,58.91
2022-09-04T22:17:40.429Z,59.14
2022-09-04T22:20:11.175Z,59.82
2022-09-04T22:22:47.234Z,59.65
2022-09-04T22:25:19.762Z,59.46
2022-09-04T22:28:07.499Z,59.90
2022-09-04T22:30:39.932Z,60.28
2022-09-04T22:33:22.705Z,59.66
2022-09-04T22:36:13.555Z,59.90
2022-09-04T22:38:40.841Z,59.61
2022-09-04T22:41:11.557Z,59.77
2022-09-04T22:43:46.904Z,59.62
2022-09-04T22:46:50.682Z,60.11
2022-09-04T22:49:22.699Z,59.85
2022-09-04T22:51:53.382Z,59.76
2022-09-04T22:54:30.157Z,59.57
2022-09-04T22:56:58.942Z,60.06
2022-09-04T22:59:30.738Z,59.95
2022-09-04T23:02:13.467Z,59.70
2022-09-04T23:04:45.504Z,60.40
2022-09-04T23:13:43.117Z,59.75
2022-09-04T23:13:57.990Z,60.07
2022-09-04T23:14:00.385Z,59.88
2022-09-04T23:16:06.520Z,60.30
2022-09-04T23:24:37.785Z,60.23
2022-09-04T23:26:36.925Z,60.25
2022-09-04T23:26:46.250Z,61.10
2022-09-04T23:27:28.117Z,60.60
2022-09-04T23:30:25.517Z,60.33
2022-09-04T23:32:54.765Z,60.42
2022-09-04T23:35:21.956Z,60.40
2022-09-04T23:37:59.770Z,60.54
2022-09-04T23:40:44.324Z,60.84
2022-09-04T23:43:30.027Z,61.65
2022-09-04T23:46:18.081Z,61.53
2022-09-04T23:49:06.879Z,61.30
2022-09-04T23:51:41.226Z,61.54
2022-09-04T23:54:28.290Z,61.68
2022-09-04T23:57:00.562Z,61.37
2022-09-04T23:59:38.942Z,61.73
